Time;durP1;ratioP1;P1;durP2;ratioP2;P2;SDS_P1;SDS_P2;PMS_P1;PMS_P2;Temp;Humidity;BMP_temperature;BMP_pressure;BME280_temperature;BME280_humidity;BME280_pressure;Samples;Min_cycle;Max_cycle;Signal;HPM_P1;HPM_P2
2023/06/29 00:01:43;;;;;;;;;;;;;;;25.18;49.31;100990.77;2231382;78;50297;-74
2023/06/29 00:04:44;;;;;;;;;;;;;;;25.19;49.37;101001.90;2254083;79;51602;-74
2023/06/29 00:07:46;;;;;;;;;;;;;;;25.19;49.40;101010.55;2207086;78;51086;-74
2023/06/29 00:10:48;;;;;;;;;;;;;;;25.18;49.45;101013.79;2233465;78;50684;-74
2023/06/29 00:13:49;;;;;;;;;;;;;;;25.18;49.53;101010.26;2234044;78;51468;-75
2023/06/29 00:16:51;;;;;;;;;;;;;;;25.18;49.54;101003.48;2256629;78;51326;-75
2023/06/29 00:19:52;;;;;;;;;;;;;;;25.17;49.58;101001.81;2233794;78;51217;-75
2023/06/29 00:22:54;;;;;;;;;;;;;;;25.17;49.48;101001.81;2233868;78;50111;-76
2023/06/29 00:25:56;;;;;;;;;;;;;;;25.16;49.45;101002.34;2256867;77;50265;-75
2023/06/29 00:28:57;;;;;;;;;;;;;;;25.16;49.42;101000.16;2235830;77;51570;-74
2023/06/29 00:31:59;;;;;;;;;;;;;;;25.16;49.45;101006.40;2199577;79;52379;-75
2023/06/29 00:35:00;;;;;;;;;;;;;;;25.18;49.39;100996.72;2222216;80;50414;-75
2023/06/29 00:38:02;;;;;;;;;;;;;;;25.16;49.34;101002.87;2221923;79;50308;-75
2023/06/29 00:41:04;;;;;;;;;;;;;;;25.17;49.36;100996.39;2246290;79;50257;-75
2023/06/29 00:44:05;;;;;;;;;;;;;;;25.17;49.54;100995.86;2234275;78;49568;-74
2023/06/29 00:47:07;;;;;;;;;;;;;;;25.17;49.29;100993.69;2233451;79;51454;-75
2023/06/29 00:50:09;;;;;;;;;;;;;;;25.16;49.37;100994.22;2256885;78;50352;-75
2023/06/29 00:53:11;;;;;;;;;;;;;;;25.17;49.30;100983.67;2256827;78;50692;-75
2023/06/29 00:56:12;;;;;;;;;;;;;;;25.15;49.45;100992.53;2233319;79;52513;-75
2023/06/29 00:59:14;;;;;;;;;;;;;;;25.16;49.30;100989.33;2256738;79;50655;-76
2023/06/29 01:02:16;;;;;;;;;;;;;;;25.15;49.33;100988.97;2257001;77;50667;-75
2023/06/29 01:05:17;;;;;;;;;;;;;;;25.16;49.44;100988.80;2256907;79;51455;-75
2023/06/29 01:08:20;;;;;;;;;;;;;;;25.15;49.30;100978.14;2233525;78;49670;-75
2023/06/29 01:11:22;;;;;;;;;;;;;;;25.14;49.29;100973.78;2265080;77;51381;-75
2023/06/29 01:14:23;;;;;;;;;;;;;;;25.14;49.28;100973.78;2315149;75;50726;-75
2023/06/29 01:17:26;;;;;;;;;;;;;;;25.13;49.36;100972.14;2314949;75;51483;-75
2023/06/29 01:20:28;;;;;;;;;;;;;;;25.14;49.26;100969.73;2315256;76;50393;-75
2023/06/29 01:23:36;;;;;;;;;;;;;;;25.13;49.33;100969.43;2315164;76;51507;-75
2023/06/29 01:26:34;;;;;;;;;;;;;;;25.11;49.33;100964.22;2292967;77;22781;-75
2023/06/29 01:29:36;;;;;;;;;;;;;;;25.13;49.29;100961.31;2315343;77;51464;-75
2023/06/29 01:32:38;;;;;;;;;;;;;;;25.11;49.29;100956.63;2293227;76;49677;-75
2023/06/29 01:35:40;;;;;;;;;;;;;;;25.11;49.33;100956.63;2315643;75;50510;-75
2023/06/29 01:38:43;;;;;;;;;;;;;;;25.11;49.26;100962.87;2301648;76;51475;-75
2023/06/29 01:41:45;;;;;;;;;;;;;;;25.11;49.30;100957.98;2256197;77;51395;-75
2023/06/29 01:44:46;;;;;;;;;;;;;;;25.10;49.31;100961.22;2234401;79;51722;-75
2023/06/29 01:47:48;;;;;;;;;;;;;;;25.10;49.21;100959.87;2257769;77;50799;-76
2023/06/29 01:50:49;;;;;;;;;;;;;;;25.11;49.31;100956.63;2234388;79;51477;-76
2023/06/29 01:53:51;;;;;;;;;;;;;;;25.12;49.29;100957.75;2258276;77;51819;-76
2023/06/29 01:56:53;;;;;;;;;;;;;;;25.11;49.22;100949.33;2234937;79;52568;-75
2023/06/29 01:59:54;;;;;;;;;;;;;;;25.11;49.23;100950.69;2257503;77;50707;-76
2023/06/29 02:02:56;;;;;;;;;;;;;;;25.10;49.38;100958.52;2257387;77;50477;-76
2023/06/29 02:06:19;;;;;;;;;;;;;;;25.10;49.33;100950.89;2260234;79;49995;-78
2023/06/29 02:09:20;;;;;;;;;;;;;;;25.10;49.25;100945.48;2256333;77;22018;-78
2023/06/29 02:12:31;;;;;;;;;;;;;;;25.08;49.07;100948.42;2259988;79;50797;-77
2023/06/29 02:19:00;;;;;;;;;;;;;;;25.08;48.89;100946.24;2261021;78;22291;-78
2023/06/29 02:22:02;;;;;;;;;;;;;;;25.08;48.67;100950.30;2235354;79;51722;-77
2023/06/29 02:25:04;;;;;;;;;;;;;;;25.07;48.81;100944.56;2236016;79;50672;-77
2023/06/29 02:28:05;;;;;;;;;;;;;;;25.05;48.55;100946.16;2258113;78;51215;-77
2023/06/29 02:31:07;;;;;;;;;;;;;;;25.06;48.45;100955.10;2257759;78;51636;-77
2023/06/29 02:34:09;;;;;;;;;;;;;;;25.06;48.45;100950.52;2211447;79;52401;-77
2023/06/29 02:37:10;;;;;;;;;;;;;;;25.06;48.43;100949.69;2234042;79;51569;-77
2023/06/29 02:40:12;;;;;;;;;;;;;;;25.06;48.34;100954.57;2256591;76;50290;-77
2023/06/29 02:43:15;;;;;;;;;;;;;;;25.06;48.30;100950.52;2294097;77;51807;-78
2023/06/29 02:46:16;;;;;;;;;;;;;;;25.05;48.29;100956.13;2293954;77;50746;-78
2023/06/29 02:49:18;;;;;;;;;;;;;;;25.05;48.30;100950.72;2315966;76;50747;-79
2023/06/29 02:52:19;;;;;;;;;;;;;;;25.04;48.28;100952.60;2316002;77;51515;-78
2023/06/29 02:55:24;;;;;;;;;;;;;;;25.04;48.25;100951.78;2269353;77;52633;-78
2023/06/29 02:58:26;;;;;;;;;;;;;;;25.05;48.40;100951.57;2293997;77;51350;-79
2023/06/29 03:01:28;;;;;;;;;;;;;;;25.05;48.42;100954.28;2316110;75;50271;-76
2023/06/29 03:04:29;;;;;;;;;;;;;;;25.07;48.45;100951.33;2294025;77;50234;-78
2023/06/29 03:07:31;;;;;;;;;;;;;;;25.06;48.38;100951.87;2293975;77;50426;-78
2023/06/29 03:10:32;;;;;;;;;;;;;;;25.07;48.41;100956.75;2271722;77;51136;-77
2023/06/29 03:13:34;;;;;;;;;;;;;;;25.06;48.42;100956.45;2317957;75;50371;-79
2023/06/29 03:16:36;;;;;;;;;;;;;;;25.06;48.34;100953.75;2295834;75;51765;-79
2023/06/29 03:19:37;;;;;;;;;;;;;;;25.06;48.44;100949.69;2316626;77;50408;-78
2023/06/29 03:22:39;;;;;;;;;;;;;;;25.06;48.45;100955.92;2271757;75;50160;-77
2023/06/29 03:25:44;;;;;;;;;;;;;;;25.05;48.41;100954.78;2318399;76;50676;-78
2023/06/29 03:28:45;;;;;;;;;;;;;;;25.06;48.39;100955.10;2318783;76;50716;-78
2023/06/29 03:31:47;;;;;;;;;;;;;;;25.05;48.31;100956.13;2319342;76;50730;-77
2023/06/29 03:34:48;;;;;;;;;;;;;;;25.06;48.32;100960.52;2271755;77;51635;-78
2023/06/29 03:37:51;;;;;;;;;;;;;;;25.06;48.22;100961.34;2318313;75;50697;-77
2023/06/29 03:40:52;;;;;;;;;;;;;;;25.06;48.25;100955.10;2260633;76;50733;-77
2023/06/29 03:43:55;;;;;;;;;;;;;;;25.06;48.21;100960.52;2259910;77;51712;-78
2023/06/29 03:46:56;;;;;;;;;;;;;;;25.06;48.19;100961.88;2236774;78;51044;-78
2023/06/29 03:49:58;;;;;;;;;;;;;;;25.07;48.15;100966.23;2260795;77;51462;-80
2023/06/29 03:53:00;;;;;;;;;;;;;;;25.06;48.13;100964.58;2237592;78;51267;-79
2023/06/29 03:56:01;;;;;;;;;;;;;;;25.05;48.11;100971.02;2259523;77;50735;-79
2023/06/29 03:59:08;;;;;;;;;;;;;;;25.05;48.10;100961.55;2259841;79;50794;-78
2023/06/29 04:02:09;;;;;;;;;;;;;;;25.06;48.14;100970.00;2258387;78;22382;-79
2023/06/29 04:05:11;;;;;;;;;;;;;;;25.04;48.10;100967.49;2259688;78;50262;-79
2023/06/29 04:08:13;;;;;;;;;;;;;;;25.05;48.14;100966.97;2236291;79;51686;-79
2023/06/29 04:11:15;;;;;;;;;;;;;;;25.05;48.16;100962.90;2223190;79;50599;-79
2023/06/29 04:14:16;;;;;;;;;;;;;;;25.05;48.15;100961.05;2232580;77;50941;-76
2023/06/29 04:17:18;;;;;;;;;;;;;;;25.04;48.09;100968.02;2255599;79;49997;-79
2023/06/29 04:20:22;;;;;;;;;;;;;;;25.03;48.08;100964.49;2256632;77;50669;-79
2023/06/29 04:23:26;;;;;;;;;;;;;;;25.02;48.03;100970.94;2234469;77;21848;-79
2023/06/29 04:26:28;;;;;;;;;;;;;;;25.02;47.91;100966.05;2255011;77;22224;-78
2023/06/29 04:29:29;;;;;;;;;;;;;;;25.02;47.74;100963.34;2233690;79;50857;-79
2023/06/29 04:32:31;;;;;;;;;;;;;;;25.01;47.64;100957.63;2233443;79;50563;-78
2023/06/29 04:35:33;;;;;;;;;;;;;;;25.01;47.51;100971.17;2233190;79;50123;-78
2023/06/29 04:38:34;;;;;;;;;;;;;;;24.98;47.44;100965.14;2252684;79;50678;-78
2023/06/29 04:41:36;;;;;;;;;;;;;;;24.97;47.41;100962.14;2277121;75;50649;-77
2023/06/29 04:44:38;;;;;;;;;;;;;;;24.99;47.33;100961.38;2232070;79;51845;-79
2023/06/29 04:47:40;;;;;;;;;;;;;;;24.99;47.33;100955.95;2231708;79;50386;-77
2023/06/29 04:50:42;;;;;;;;;;;;;;;24.99;47.36;100955.14;2255198;78;51585;-78
2023/06/29 04:53:44;;;;;;;;;;;;;;;25.02;47.32;100960.64;2255165;79;50911;-77
2023/06/29 04:56:46;;;;;;;;;;;;;;;25.05;47.58;100961.55;2254981;77;50713;-77
2023/06/29 04:59:47;;;;;;;;;;;;;;;25.06;47.39;100953.22;2259816;77;51938;-76
2023/06/29 05:02:49;;;;;;;;;;;;;;;25.05;47.66;100943.45;2286680;77;51415;-76
2023/06/29 05:05:50;;;;;;;;;;;;;;;25.10;47.55;100950.89;2286702;77;51427;-74
2023/06/29 05:08:52;;;;;;;;;;;;;;;25.14;47.20;100944.00;2302425;77;51454;-76
2023/06/29 05:11:54;;;;;;;;;;;;;;;25.18;47.20;100949.33;2265980;77;51578;-76
2023/06/29 05:14:55;;;;;;;;;;;;;;;25.23;46.96;100944.08;2256894;77;51564;-75
2023/06/29 05:17:57;;;;;;;;;;;;;;;25.28;46.63;100948.31;2256814;79;50236;-76
2023/06/29 05:20:58;;;;;;;;;;;;;;;25.51;46.07;100950.91;2234066;78;51484;-76
2023/06/29 05:24:00;;;;;;;;;;;;;;;25.57;45.59;100950.87;2209888;78;51708;-76
2023/06/29 05:27:02;;;;;;;;;;;;;;;25.58;45.64;100949.80;2256805;79;51529;-76
2023/06/29 05:30:03;;;;;;;;;;;;;;;25.55;45.79;100945.36;2233434;79;51512;-76
2023/06/29 05:33:05;;;;;;;;;;;;;;;25.51;45.79;100946.84;2256968;78;51461;-76
2023/06/29 05:36:06;;;;;;;;;;;;;;;25.45;45.90;100948.56;2210058;78;52591;-74
2023/06/29 05:39:08;;;;;;;;;;;;;;;25.39;45.98;100951.64;2233921;78;52359;-76
2023/06/29 05:42:10;;;;;;;;;;;;;;;25.37;45.90;100946.97;2255850;78;50666;-76
2023/06/29 05:45:13;;;;;;;;;;;;;;;25.34;45.92;100949.30;2233609;78;50123;-75
2023/06/29 05:48:14;;;;;;;;;;;;;;;25.34;45.87;100952.83;2209722;79;51625;-75
2023/06/29 05:51:16;;;;;;;;;;;;;;;25.33;45.91;100949.83;2256986;77;51471;-75
2023/06/29 05:54:18;;;;;;;;;;;;;;;25.30;46.04;100948.07;2233682;78;53751;-75
2023/06/29 05:57:19;;;;;;;;;;;;;;;25.34;45.87;100950.13;2256789;77;52617;-75
2023/06/29 06:00:21;;;;;;;;;;;;;;;25.33;45.88;100953.89;2209644;79;52386;-74
2023/06/29 06:03:23;;;;;;;;;;;;;;;25.35;45.77;100949.59;2233668;79;51484;-75
2023/06/29 06:06:25;;;;;;;;;;;;;;;25.30;45.85;100955.66;2256729;77;51662;-75
2023/06/29 06:09:26;;;;;;;;;;;;;;;25.38;45.74;100956.77;2257232;77;50686;-74
2023/06/29 06:12:28;;;;;;;;;;;;;;;25.46;45.61;100949.39;2237812;77;51521;-74
2023/06/29 06:15:29;;;;;;;;;;;;;;;25.42;45.75;100955.80;2251396;77;53637;-75
2023/06/29 06:18:31;;;;;;;;;;;;;;;25.39;45.83;100949.47;2259309;77;51837;-74
2023/06/29 06:21:33;;;;;;;;;;;;;;;25.44;45.71;100950.16;2238900;77;51435;-74
2023/06/29 06:24:34;;;;;;;;;;;;;;;25.46;45.71;100953.45;2223237;77;51238;-74
2023/06/29 06:27:36;;;;;;;;;;;;;;;25.46;45.47;100953.45;2297016;76;51550;-74
2023/06/29 06:30:38;;;;;;;;;;;;;;;25.47;45.39;100955.14;2297200;76;50342;-75
2023/06/29 06:33:40;;;;;;;;;;;;;;;25.48;45.29;100948.13;2241275;77;50825;-75
2023/06/29 06:36:41;;;;;;;;;;;;;;;25.51;45.11;100945.49;2196889;80;51614;-74
2023/06/29 06:39:43;;;;;;;;;;;;;;;25.59;44.92;100945.23;2246716;77;50332;-76
2023/06/29 06:42:45;;;;;;;;;;;;;;;25.64;45.13;100941.33;2257120;77;50658;-75
2023/06/29 06:45:46;;;;;;;;;;;;;;;25.69;44.88;100942.84;2241421;77;51471;-75
2023/06/29 06:48:48;;;;;;;;;;;;;;;25.71;44.94;100937.19;2232162;79;51571;-75
2023/06/29 06:51:49;;;;;;;;;;;;;;;25.69;45.00;100943.34;2254141;79;51463;-75
2023/06/29 06:54:51;;;;;;;;;;;;;;;25.64;44.94;100941.33;2255691;78;51548;-74
2023/06/29 06:57:53;;;;;;;;;;;;;;;25.60;45.01;100937.39;2256375;77;51455;-75
2023/06/29 07:00:54;;;;;;;;;;;;;;;25.57;44.97;100940.56;2203186;79;52742;-75
2023/06/29 07:03:56;;;;;;;;;;;;;;;25.60;44.86;100941.46;2202087;79;51647;-75
2023/06/29 07:06:58;;;;;;;;;;;;;;;25.61;44.79;100941.25;2255263;79;51404;-75
2023/06/29 07:09:59;;;;;;;;;;;;;;;25.59;44.71;100942.52;2238680;77;51615;-74
2023/06/29 07:13:01;;;;;;;;;;;;;;;25.57;44.71;100935.14;2246309;77;50763;-74
2023/06/29 07:16:03;;;;;;;;;;;;;;;25.50;44.81;100950.09;2255450;78;51538;-75
2023/06/29 07:19:05;;;;;;;;;;;;;;;25.51;44.78;100941.43;2274176;75;49864;-75
2023/06/29 07:22:07;;;;;;;;;;;;;;;25.48;44.71;100945.41;2268623;77;51708;-75
2023/06/29 07:25:11;;;;;;;;;;;;;;;25.45;44.72;100943.15;2233822;78;51691;-74
2023/06/29 07:28:12;;;;;;;;;;;;;;;25.45;44.68;100942.33;2231068;78;22384;-74
2023/06/29 07:31:13;;;;;;;;;;;;;;;25.42;44.74;100942.25;2256224;77;51548;-74
2023/06/29 07:34:15;;;;;;;;;;;;;;;25.43;44.63;100937.12;2232523;78;50615;-74
2023/06/29 07:37:16;;;;;;;;;;;;;;;25.40;44.58;100928.91;2233087;77;50047;-74
2023/06/29 07:40:19;;;;;;;;;;;;;;;25.39;44.66;100931.33;2239891;77;50667;-75
2023/06/29 07:43:21;;;;;;;;;;;;;;;25.40;44.54;100927.55;2248303;77;51598;-74
2023/06/29 07:46:23;;;;;;;;;;;;;;;25.38;44.58;100927.47;2261295;77;50382;-75
2023/06/29 07:49:24;;;;;;;;;;;;;;;25.36;44.56;100929.59;2296939;76;51507;-75
2023/06/29 07:52:26;;;;;;;;;;;;;;;25.34;44.64;100927.10;2239686;77;54114;-76
2023/06/29 07:55:28;;;;;;;;;;;;;;;25.35;44.52;100931.98;2261385;77;51729;-76
2023/06/29 07:58:29;;;;;;;;;;;;;;;25.33;44.55;100925.95;2256526;78;51527;-76
2023/06/29 08:01:33;;;;;;;;;;;;;;;25.34;44.51;100925.75;2273384;75;52399;-75
2023/06/29 08:04:34;;;;;;;;;;;;;;;25.30;44.62;100925.88;2312790;75;51390;-75
2023/06/29 08:07:36;;;;;;;;;;;;;;;25.34;44.47;100924.39;2256361;78;51594;-75
2023/06/29 08:10:38;;;;;;;;;;;;;;;25.35;44.56;100934.70;2256795;77;51512;-75
2023/06/29 08:13:39;;;;;;;;;;;;;;;25.37;44.46;100929.36;2209772;79;50129;-76
2023/06/29 08:16:41;;;;;;;;;;;;;;;25.37;44.43;100925.30;2254574;78;50320;-75
2023/06/29 08:19:42;;;;;;;;;;;;;;;25.32;44.48;100922.42;2254012;78;50384;-73
2023/06/29 08:22:45;;;;;;;;;;;;;;;25.35;44.42;100917.91;2253545;79;50679;-74
2023/06/29 08:25:46;;;;;;;;;;;;;;;25.34;44.47;100922.22;2253590;78;50453;-74
2023/06/29 08:28:49;;;;;;;;;;;;;;;25.35;44.36;100917.91;2230657;77;51501;-72
2023/06/29 08:31:51;;;;;;;;;;;;;;;25.35;44.42;100916.55;2232464;77;51579;-73
2023/06/29 08:34:53;;;;;;;;;;;;;;;25.34;44.33;100917.62;2254182;76;50407;-73
2023/06/29 08:37:54;;;;;;;;;;;;;;;25.29;44.47;100917.45;2282544;77;50327;-73
2023/06/29 08:40:57;;;;;;;;;;;;;;;25.30;44.43;100914.22;2233639;78;50705;-73
2023/06/29 08:43:59;;;;;;;;;;;;;;;25.29;44.33;100919.34;2256620;77;52761;-73
2023/06/29 08:47:01;;;;;;;;;;;;;;;25.26;44.34;100919.78;2240421;77;49905;-73
2023/06/29 08:50:04;;;;;;;;;;;;;;;25.28;44.35;100925.28;2303301;76;51455;-73
2023/06/29 08:53:05;;;;;;;;;;;;;;;25.28;44.29;100924.44;2213205;78;51231;-73
2023/06/29 08:56:07;;;;;;;;;;;;;;;25.28;44.28;100923.94;2277625;77;50129;-73
2023/06/29 08:59:08;;;;;;;;;;;;;;;25.27;44.40;100920.91;2314864;77;50432;-74
2023/06/29 09:02:10;;;;;;;;;;;;;;;25.24;44.37;100921.35;2269959;76;50448;-74
2023/06/29 09:05:13;;;;;;;;;;;;;;;25.23;44.39;100917.00;2233866;77;49289;-74
2023/06/29 09:08:15;;;;;;;;;;;;;;;25.21;44.43;100919.09;2256688;77;50285;-74
2023/06/29 09:11:16;;;;;;;;;;;;;;;25.20;44.40;100920.12;2252601;77;50812;-73
2023/06/29 09:14:18;;;;;;;;;;;;;;;25.19;44.37;100915.23;2230438;77;50351;-74
2023/06/29 09:17:21;;;;;;;;;;;;;;;25.19;44.43;100917.95;2254419;77;52010;-74
2023/06/29 09:23:44;;;;;;;;;;;;;;;25.18;44.34;100915.47;2227535;79;21906;-73
2023/06/29 09:26:47;;;;;;;;;;;;;;;25.18;44.38;100911.41;2232688;79;52651;-73
2023/06/29 09:29:51;;;;;;;;;;;;;;;25.17;44.36;100913.80;2212577;78;52648;-74
2023/06/29 09:32:53;;;;;;;;;;;;;;;25.18;44.31;100915.47;2236275;78;50501;-73
2023/06/29 09:35:54;;;;;;;;;;;;;;;25.17;44.32;100912.44;2211262;78;50426;-73
2023/06/29 09:38:58;;;;;;;;;;;;;;;25.17;44.29;100908.38;2235519;78;50430;-74
2023/06/29 09:42:00;;;;;;;;;;;;;;;25.18;44.29;100910.06;2218606;78;52705;-73
2023/06/29 09:45:02;;;;;;;;;;;;;;;25.18;44.27;100914.13;2211847;79;50323;-74
2023/06/29 09:48:03;;;;;;;;;;;;;;;25.18;44.30;100908.70;2227447;78;51603;-73
2023/06/29 09:51:05;;;;;;;;;;;;;;;25.17;44.30;100905.14;2229491;79;52185;-73
2023/06/29 09:54:13;;;;;;;;;;;;;;;25.18;44.25;100910.06;2187228;78;51780;-73
2023/06/29 09:57:15;;;;;;;;;;;;;;;25.18;44.30;100901.94;2240426;78;50730;-74
2023/06/29 10:00:17;;;;;;;;;;;;;;;25.18;44.29;100899.23;2258869;77;50276;-73
2023/06/29 10:03:19;;;;;;;;;;;;;;;25.23;44.25;100895.83;2230980;79;51558;-73
2023/06/29 10:06:22;;;;;;;;;;;;;;;25.22;44.26;100890.95;2254063;77;51548;-73
2023/06/29 10:09:24;;;;;;;;;;;;;;;25.22;44.26;100892.30;2253989;78;51494;-74
2023/06/29 10:12:26;;;;;;;;;;;;;;;25.22;44.25;100896.89;2261573;77;51447;-74
2023/06/29 10:15:27;;;;;;;;;;;;;;;25.21;44.33;100892.01;2256975;77;51669;-74
2023/06/29 10:18:30;;;;;;;;;;;;;;;25.18;44.37;100887.04;2266566;77;51535;-74
2023/06/29 10:21:32;;;;;;;;;;;;;;;25.19;44.37;100885.98;2243706;78;50038;-75
2023/06/29 10:24:35;;;;;;;;;;;;;;;25.19;44.38;100880.56;2285861;77;50409;-75
2023/06/29 10:27:36;;;;;;;;;;;;;;;25.22;44.34;100877.94;2268148;76;50475;-75
2023/06/29 10:30:50;;;;;;;;;;;;;;;25.24;44.29;100875.31;2231908;77;50907;-75
2023/06/29 10:33:48;;;;;;;;;;;;;;;25.24;44.23;100876.66;2273701;77;22415;-75
2023/06/29 10:36:50;;;;;;;;;;;;;;;25.22;44.29;100874.70;2261491;77;51696;-76
2023/06/29 10:39:52;;;;;;;;;;;;;;;25.23;44.29;100870.95;2280659;77;50755;-75
2023/06/29 10:42:54;;;;;;;;;;;;;;;25.25;44.17;100867.47;2208151;79;51099;-75
2023/06/29 10:45:56;;;;;;;;;;;;;;;25.27;44.06;100865.38;2232162;78;51612;-75
2023/06/29 10:49:01;;;;;;;;;;;;;;;25.24;44.10;100860.41;2264233;75;51589;-75
2023/06/29 10:52:03;;;;;;;;;;;;;;;25.27;44.03;100863.20;2240131;77;50292;-75
2023/06/29 10:55:15;;;;;;;;;;;;;;;25.26;44.02;100861.03;2209992;78;51689;-75
2023/06/29 10:58:22;;;;;;;;;;;;;;;25.22;44.04;100855.73;2276073;77;50301;-74
2023/06/29 11:01:23;;;;;;;;;;;;;;;25.19;44.10;100854.30;2274007;75;51569;-75
2023/06/29 11:04:25;;;;;;;;;;;;;;;25.20;44.07;100841.58;2275348;77;51509;-75
2023/06/29 11:07:27;;;;;;;;;;;;;;;25.21;43.98;100841.91;2247713;77;51497;-75
2023/06/29 11:10:28;;;;;;;;;;;;;;;25.20;43.92;100852.41;2251202;77;51555;-75
2023/06/29 11:13:30;;;;;;;;;;;;;;;25.20;43.88;100835.67;2230488;78;51412;-76
2023/06/29 11:16:33;;;;;;;;;;;;;;;25.18;43.82;100835.05;2228180;78;51535;-75
2023/06/29 11:19:34;;;;;;;;;;;;;;;25.19;43.82;100833.17;2227815;78;50175;-75
2023/06/29 11:22:36;;;;;;;;;;;;;;;25.18;43.79;100830.17;2287254;77;50298;-76
2023/06/29 11:25:38;;;;;;;;;;;;;;;25.18;43.82;100829.64;2258263;77;50305;-75
2023/06/29 11:28:39;;;;;;;;;;;;;;;25.17;43.82;100825.25;2232527;77;52149;-74
2023/06/29 11:31:41;;;;;;;;;;;;;;;25.19;43.78;100821.80;2235358;78;49583;-74
2023/06/29 11:34:42;;;;;;;;;;;;;;;25.22;43.77;100827.30;2254545;78;50438;-75
2023/06/29 11:37:44;;;;;;;;;;;;;;;25.23;43.76;100819.50;2233754;78;51930;-74
2023/06/29 11:40:46;;;;;;;;;;;;;;;25.22;43.73;100824.59;2263002;76;50408;-76
2023/06/29 11:43:49;;;;;;;;;;;;;;;25.22;43.81;100816.47;2232682;79;49673;-76
2023/06/29 11:46:51;;;;;;;;;;;;;;;25.22;43.77;100808.34;2254276;78;50369;-76
2023/06/29 11:49:54;;;;;;;;;;;;;;;25.21;43.82;100805.34;2254352;78;51566;-74
2023/06/29 11:52:57;;;;;;;;;;;;;;;25.24;43.80;100805.42;2267045;77;50576;-75
2023/06/29 11:55:59;;;;;;;;;;;;;;;25.25;43.74;100803.00;2207907;77;51093;-75
2023/06/29 11:59:07;;;;;;;;;;;;;;;25.26;43.71;100804.69;2231887;77;51694;-75
2023/06/29 12:02:08;;;;;;;;;;;;;;;25.26;43.70;100796.03;2294233;75;50830;-76
2023/06/29 12:05:10;;;;;;;;;;;;;;;25.26;43.75;100798.73;2255407;77;50429;-75
2023/06/29 12:08:12;;;;;;;;;;;;;;;25.28;43.68;100785.80;2232247;77;50209;-77
2023/06/29 12:11:18;;;;;;;;;;;;;;;25.27;43.70;100787.37;2233254;78;49997;-76
2023/06/29 12:14:20;;;;;;;;;;;;;;;25.28;43.67;100793.92;2257257;77;50844;-76
2023/06/29 12:17:23;;;;;;;;;;;;;;;25.25;43.74;100783.52;2291004;76;52437;-74
2023/06/29 12:20:25;;;;;;;;;;;;;;;25.23;43.74;100781.59;2230905;77;51729;-74
2023/06/29 12:23:26;;;;;;;;;;;;;;;25.24;43.72;100775.64;2280908;77;51418;-75
2023/06/29 12:26:28;;;;;;;;;;;;;;;25.26;43.66;100777.59;2247847;77;52215;-75
2023/06/29 12:29:29;;;;;;;;;;;;;;;25.25;43.68;100772.69;2232273;79;51579;-75
2023/06/29 12:32:31;;;;;;;;;;;;;;;25.26;43.65;100767.59;2209537;78;52366;-76
2023/06/29 12:35:33;;;;;;;;;;;;;;;25.23;43.70;100763.98;2253987;77;51474;-76
2023/06/29 12:38:35;;;;;;;;;;;;;;;25.27;43.60;100758.93;2290282;76;51546;-76
2023/06/29 12:41:36;;;;;;;;;;;;;;;25.22;43.67;100767.72;2248058;78;50759;-75
2023/06/29 12:44:38;;;;;;;;;;;;;;;25.24;43.69;100759.39;2247253;77;52499;-76
2023/06/29 12:47:41;;;;;;;;;;;;;;;25.23;43.72;100763.98;2284994;75;50679;-75
2023/06/29 12:50:42;;;;;;;;;;;;;;;25.24;43.72;100760.73;2242807;77;50452;-75
2023/06/29 12:53:44;;;;;;;;;;;;;;;25.24;43.72;100762.09;2279420;76;50297;-76
2023/06/29 12:56:47;;;;;;;;;;;;;;;25.19;43.83;100758.70;2250471;77;50683;-77
2023/06/29 12:59:48;;;;;;;;;;;;;;;25.20;43.87;100756.28;2242075;78;51599;-75
2023/06/29 13:02:51;;;;;;;;;;;;;;;25.23;43.87;100749.09;2226791;78;51527;-75
2023/06/29 13:05:53;;;;;;;;;;;;;;;25.19;43.98;100754.64;2246192;77;51420;-76
2023/06/29 13:08:55;;;;;;;;;;;;;;;25.21;43.98;100748.48;2211036;77;52727;-75
2023/06/29 13:11:59;;;;;;;;;;;;;;;25.19;44.06;100748.69;2236915;77;51643;-74
2023/06/29 13:15:01;;;;;;;;;;;;;;;25.18;44.14;100740.81;2255905;78;51545;-75
2023/06/29 13:18:03;;;;;;;;;;;;;;;25.22;44.14;100735.76;2258138;77;51450;-75
2023/06/29 13:21:04;;;;;;;;;;;;;;;25.22;44.14;100742.00;2210947;78;51835;-75
2023/06/29 13:24:06;;;;;;;;;;;;;;;25.20;44.19;100732.77;2235764;78;51467;-75
2023/06/29 13:27:08;;;;;;;;;;;;;;;25.21;44.22;100725.45;2258590;77;50760;-75
2023/06/29 13:30:09;;;;;;;;;;;;;;;25.22;44.25;100722.22;2258863;77;50323;-75
2023/06/29 13:33:11;;;;;;;;;;;;;;;25.18;44.37;100728.63;2211536;78;52356;-75
2023/06/29 13:36:12;;;;;;;;;;;;;;;25.18;44.39;100720.50;2236433;78;51051;-75
2023/06/29 13:39:14;;;;;;;;;;;;;;;25.18;44.45;100720.50;2273025;76;51585;-75
2023/06/29 13:42:16;;;;;;;;;;;;;;;25.18;44.46;100724.03;2260664;77;50103;-75
2023/06/29 13:45:17;;;;;;;;;;;;;;;25.21;44.47;100720.04;2209922;79;51527;-75
2023/06/29 13:48:19;;;;;;;;;;;;;;;25.22;44.48;100718.16;2256813;78;50773;-75
2023/06/29 13:51:21;;;;;;;;;;;;;;;25.23;44.47;100705.76;2257068;77;50656;-75
2023/06/29 13:54:22;;;;;;;;;;;;;;;25.22;44.48;100713.56;2257021;79;51510;-75
2023/06/29 13:57:24;;;;;;;;;;;;;;;25.21;44.54;100705.15;2233878;78;51554;-76
2023/06/29 14:00:25;;;;;;;;;;;;;;;25.23;44.51;100707.11;2233721;78;51850;-75
2023/06/29 14:03:27;;;;;;;;;;;;;;;25.19;44.63;100702.66;2257156;77;50279;-75
2023/06/29 14:06:29;;;;;;;;;;;;;;;25.21;44.63;100698.37;2233482;79;49966;-75
2023/06/29 14:09:30;;;;;;;;;;;;;;;25.20;44.66;100696.20;2228953;77;50867;-75
2023/06/29 14:12:33;;;;;;;;;;;;;;;25.22;44.67;100698.66;2271526;75;50662;-75
2023/06/29 14:15:36;;;;;;;;;;;;;;;25.24;44.63;100688.97;2315368;76;50360;-75
2023/06/29 14:18:37;;;;;;;;;;;;;;;25.22;44.72;100691.89;2315539;75;23192;-75
2023/06/29 14:21:39;;;;;;;;;;;;;;;25.20;44.78;100686.72;2268146;77;52538;-75
2023/06/29 14:24:41;;;;;;;;;;;;;;;25.24;44.73;100683.02;2315361;76;51391;-75
2023/06/29 14:27:42;;;;;;;;;;;;;;;25.25;44.71;100683.31;2291853;75;51471;-76
2023/06/29 14:30:44;;;;;;;;;;;;;;;25.29;44.65;100686.41;2293478;77;50421;-75
2023/06/29 14:33:45;;;;;;;;;;;;;;;25.27;44.74;100676.33;2268462;75;52336;-75
2023/06/29 14:36:47;;;;;;;;;;;;;;;25.27;44.75;100673.09;2315166;75;51444;-76
2023/06/29 14:39:49;;;;;;;;;;;;;;;25.27;44.80;100664.14;2279819;75;51528;-77
2023/06/29 14:42:50;;;;;;;;;;;;;;;25.25;44.84;100663.00;2276968;77;51524;-75
2023/06/29 14:45:54;;;;;;;;;;;;;;;25.26;44.84;100664.67;2293175;75;50317;-75
2023/06/29 14:48:55;;;;;;;;;;;;;;;25.25;44.90;100660.83;2293571;77;22419;-75
2023/06/29 14:51:57;;;;;;;;;;;;;;;25.26;44.87;100657.91;2293165;75;51462;-75
2023/06/29 14:54:58;;;;;;;;;;;;;;;25.29;44.85;100655.27;2315283;75;50747;-75
2023/06/29 14:58:04;;;;;;;;;;;;;;;25.29;44.90;100651.20;2315092;76;51490;-75
2023/06/29 15:01:06;;;;;;;;;;;;;;;25.29;44.89;100646.61;2294105;75;51600;-75
2023/06/29 15:04:07;;;;;;;;;;;;;;;25.32;44.82;100642.08;2315320;77;51525;-75
2023/06/29 15:07:09;;;;;;;;;;;;;;;25.30;44.90;100640.13;2315091;77;51546;-75
2023/06/29 15:10:10;;;;;;;;;;;;;;;25.32;44.86;100633.14;2272355;77;51143;-73
2023/06/29 15:13:12;;;;;;;;;;;;;;;25.31;44.94;100639.09;2263987;77;51429;-74
2023/06/29 15:16:14;;;;;;;;;;;;;;;25.33;44.88;100631.57;2254121;79;50000;-73
2023/06/29 15:19:15;;;;;;;;;;;;;;;25.32;44.92;100635.31;2231396;79;50017;-74
2023/06/29 15:22:17;;;;;;;;;;;;;;;25.28;45.05;100631.42;2207476;79;51254;-75
2023/06/29 15:25:18;;;;;;;;;;;;;;;25.32;44.94;100628.54;2254423;79;50662;-74
2023/06/29 15:28:20;;;;;;;;;;;;;;;25.29;45.07;100623.59;2254132;78;51611;-75
2023/06/29 15:31:21;;;;;;;;;;;;;;;25.29;45.08;100618.17;2254328;79;51462;-74
2023/06/29 15:34:23;;;;;;;;;;;;;;;25.32;45.02;100625.02;2231179;79;52335;-74
2023/06/29 15:37:25;;;;;;;;;;;;;;;25.32;45.04;100621.77;2254280;79;50749;-75
2023/06/29 15:40:26;;;;;;;;;;;;;;;25.34;45.02;100614.78;2276970;77;49985;-75